sensor_id;sensor_type;location;lat;lon;timestamp;P1;durP1;ratioP1;P2;durP2;ratioP2
27357;SDS011;14831;50.474;7.616;2023-08-31T00:01:01;1.5;;;1.4;;
27357;SDS011;14831;50.474;7.616;2023-08-31T00:05:58;1.5;;;1.4;;
27357;SDS011;14831;50.474;7.616;2023-08-31T00:10:59;1.5;;;1.4;;
27357;SDS011;14831;50.474;7.616;2023-08-31T00:15:57;1.5;;;1.4;;
27357;SDS011;14831;50.474;7.616;2023-08-31T00:20:57;1.5;;;1.4;;
27357;SDS011;14831;50.474;7.616;2023-08-31T00:25:57;1.5;;;1.4;;
27357;SDS011;14831;50.474;7.616;2023-08-31T00:31:00;1.4;;;1.3;;
27357;SDS011;14831;50.474;7.616;2023-08-31T00:35:59;1.4;;;1.3;;
27357;SDS011;14831;50.474;7.616;2023-08-31T00:40:57;1.4;;;1.3;;
27357;SDS011;14831;50.474;7.616;2023-08-31T00:45:58;1.4;;;1.3;;
27357;SDS011;14831;50.474;7.616;2023-08-31T00:50:57;1.4;;;1.3;;
27357;SDS011;14831;50.474;7.616;2023-08-31T00:55:57;1.4;;;1.3;;
27357;SDS011;14831;50.474;7.616;2023-08-31T01:01:05;1.2;;;1.1;;
27357;SDS011;14831;50.474;7.616;2023-08-31T01:06:02;1.2;;;1.1;;
27357;SDS011;14831;50.474;7.616;2023-08-31T01:11:02;1.2;;;1.1;;
27357;SDS011;14831;50.474;7.616;2023-08-31T01:16:00;1.2;;;1.1;;
27357;SDS011;14831;50.474;7.616;2023-08-31T01:21:05;1.2;;;1.1;;
27357;SDS011;14831;50.474;7.616;2023-08-31T01:25:58;1.2;;;1.1;;
27357;SDS011;14831;50.474;7.616;2023-08-31T01:30:57;1.2;;;1.1;;
27357;SDS011;14831;50.474;7.616;2023-08-31T01:35:59;1.2;;;1.1;;
27357;SDS011;14831;50.474;7.616;2023-08-31T01:41:01;1.2;;;1.1;;
27357;SDS011;14831;50.474;7.616;2023-08-31T01:45:58;1.2;;;1.1;;
27357;SDS011;14831;50.474;7.616;2023-08-31T01:50:57;1.2;;;1.1;;
27357;SDS011;14831;50.474;7.616;2023-08-31T01:55:57;1.2;;;1.1;;
27357;SDS011;14831;50.474;7.616;2023-08-31T02:00:57;1.3;;;1.1;;
27357;SDS011;14831;50.474;7.616;2023-08-31T02:05:57;1.3;;;1.1;;
27357;SDS011;14831;50.474;7.616;2023-08-31T02:10:57;1.3;;;1.1;;
27357;SDS011;14831;50.474;7.616;2023-08-31T02:15:57;1.3;;;1.1;;
27357;SDS011;14831;50.474;7.616;2023-08-31T02:20:57;1.3;;;1.1;;
27357;SDS011;14831;50.474;7.616;2023-08-31T02:25:58;1.3;;;1.1;;
27357;SDS011;14831;50.474;7.616;2023-08-31T02:30:59;1.1;;;1.1;;
27357;SDS011;14831;50.474;7.616;2023-08-31T02:35:58;1.1;;;1.1;;
27357;SDS011;14831;50.474;7.616;2023-08-31T02:40:58;1.1;;;1.1;;
27357;SDS011;14831;50.474;7.616;2023-08-31T02:45:59;1.1;;;1.1;;
27357;SDS011;14831;50.474;7.616;2023-08-31T02:50:58;1.1;;;1.1;;
27357;SDS011;14831;50.474;7.616;2023-08-31T02:55:58;1.1;;;1.1;;
27357;SDS011;14831;50.474;7.616;2023-08-31T03:01:06;1.0;;;1.0;;
27357;SDS011;14831;50.474;7.616;2023-08-31T03:05:58;1.0;;;1.0;;
27357;SDS011;14831;50.474;7.616;2023-08-31T03:10:58;1.0;;;1.0;;
27357;SDS011;14831;50.474;7.616;2023-08-31T03:15:58;1.0;;;1.0;;
27357;SDS011;14831;50.474;7.616;2023-08-31T03:20:58;1.0;;;1.0;;
27357;SDS011;14831;50.474;7.616;2023-08-31T03:25:58;1.0;;;1.0;;
27357;SDS011;14831;50.474;7.616;2023-08-31T03:30:57;0.9;;;0.9;;
27357;SDS011;14831;50.474;7.616;2023-08-31T03:36:00;0.9;;;0.9;;
27357;SDS011;14831;50.474;7.616;2023-08-31T03:40:58;0.9;;;0.9;;
27357;SDS011;14831;50.474;7.616;2023-08-31T03:45:58;0.9;;;0.9;;
27357;SDS011;14831;50.474;7.616;2023-08-31T03:50:58;0.9;;;0.9;;
27357;SDS011;14831;50.474;7.616;2023-08-31T03:55:58;0.9;;;0.9;;
27357;SDS011;14831;50.474;7.616;2023-08-31T04:00:58;1.1;;;1.0;;
27357;SDS011;14831;50.474;7.616;2023-08-31T04:05:57;1.1;;;1.0;;
27357;SDS011;14831;50.474;7.616;2023-08-31T04:10:57;1.1;;;1.0;;
27357;SDS011;14831;50.474;7.616;2023-08-31T04:15:57;1.1;;;1.0;;
27357;SDS011;14831;50.474;7.616;2023-08-31T04:20:57;1.1;;;1.0;;
27357;SDS011;14831;50.474;7.616;2023-08-31T04:25:58;1.1;;;1.0;;
27357;SDS011;14831;50.474;7.616;2023-08-31T04:30:57;1.2;;;1.1;;
27357;SDS011;14831;50.474;7.616;2023-08-31T04:35:58;1.2;;;1.1;;
27357;SDS011;14831;50.474;7.616;2023-08-31T04:40:58;1.2;;;1.1;;
27357;SDS011;14831;50.474;7.616;2023-08-31T04:45:57;1.2;;;1.1;;
27357;SDS011;14831;50.474;7.616;2023-08-31T04:50:58;1.2;;;1.1;;
27357;SDS011;14831;50.474;7.616;2023-08-31T04:55:58;1.2;;;1.1;;
27357;SDS011;14831;50.474;7.616;2023-08-31T05:00:57;1.2;;;1.1;;
27357;SDS011;14831;50.474;7.616;2023-08-31T05:05:57;1.2;;;1.1;;
27357;SDS011;14831;50.474;7.616;2023-08-31T05:10:58;1.2;;;1.1;;
27357;SDS011;14831;50.474;7.616;2023-08-31T05:15:57;1.2;;;1.1;;
27357;SDS011;14831;50.474;7.616;2023-08-31T05:20:58;1.2;;;1.1;;
27357;SDS011;14831;50.474;7.616;2023-08-31T05:25:57;1.2;;;1.1;;
27357;SDS011;14831;50.474;7.616;2023-08-31T05:31:01;0.8;;;0.8;;
27357;SDS011;14831;50.474;7.616;2023-08-31T05:36:00;0.8;;;0.8;;
27357;SDS011;14831;50.474;7.616;2023-08-31T05:41:05;0.8;;;0.8;;
27357;SDS011;14831;50.474;7.616;2023-08-31T05:45:57;0.8;;;0.8;;
27357;SDS011;14831;50.474;7.616;2023-08-31T05:50:58;0.8;;;0.8;;
27357;SDS011;14831;50.474;7.616;2023-08-31T05:55:58;0.8;;;0.8;;
27357;SDS011;14831;50.474;7.616;2023-08-31T06:00:58;1.2;;;0.9;;
27357;SDS011;14831;50.474;7.616;2023-08-31T06:05:58;1.2;;;0.9;;
27357;SDS011;14831;50.474;7.616;2023-08-31T06:10:57;1.2;;;0.9;;
27357;SDS011;14831;50.474;7.616;2023-08-31T06:15:57;1.2;;;0.9;;
27357;SDS011;14831;50.474;7.616;2023-08-31T06:20:58;1.2;;;0.9;;
27357;SDS011;14831;50.474;7.616;2023-08-31T06:25:57;1.2;;;0.9;;
27357;SDS011;14831;50.474;7.616;2023-08-31T06:30:57;1.5;;;1.0;;
27357;SDS011;14831;50.474;7.616;2023-08-31T06:35:57;1.5;;;1.0;;
27357;SDS011;14831;50.474;7.616;2023-08-31T06:40:57;1.5;;;1.0;;
27357;SDS011;14831;50.474;7.616;2023-08-31T06:45:57;1.5;;;1.0;;
27357;SDS011;14831;50.474;7.616;2023-08-31T06:50:57;1.5;;;1.0;;
27357;SDS011;14831;50.474;7.616;2023-08-31T06:55:58;1.5;;;1.0;;
27357;SDS011;14831;50.474;7.616;2023-08-31T07:00:58;3.2;;;1.5;;
27357;SDS011;14831;50.474;7.616;2023-08-31T07:05:58;3.2;;;1.5;;
27357;SDS011;14831;50.474;7.616;2023-08-31T07:10:58;3.2;;;1.5;;
27357;SDS011;14831;50.474;7.616;2023-08-31T07:15:57;3.2;;;1.5;;
27357;SDS011;14831;50.474;7.616;2023-08-31T07:20:57;3.2;;;1.5;;
27357;SDS011;14831;50.474;7.616;2023-08-31T07:25:57;3.2;;;1.5;;
27357;SDS011;14831;50.474;7.616;2023-08-31T07:31:02;1.8;;;1.2;;
27357;SDS011;14831;50.474;7.616;2023-08-31T07:35:58;1.8;;;1.2;;
27357;SDS011;14831;50.474;7.616;2023-08-31T07:40:58;1.8;;;1.2;;
27357;SDS011;14831;50.474;7.616;2023-08-31T07:45:57;1.8;;;1.2;;
27357;SDS011;14831;50.474;7.616;2023-08-31T07:50:58;1.8;;;1.2;;
27357;SDS011;14831;50.474;7.616;2023-08-31T07:55:58;1.8;;;1.2;;
27357;SDS011;14831;50.474;7.616;2023-08-31T08:00:58;1.5;;;1.0;;
27357;SDS011;14831;50.474;7.616;2023-08-31T08:05:58;1.5;;;1.0;;
27357;SDS011;14831;50.474;7.616;2023-08-31T08:10:57;1.5;;;1.0;;
27357;SDS011;14831;50.474;7.616;2023-08-31T08:15:57;1.5;;;1.0;;
27357;SDS011;14831;50.474;7.616;2023-08-31T08:20:57;1.5;;;1.0;;
27357;SDS011;14831;50.474;7.616;2023-08-31T08:25:58;1.5;;;1.0;;
27357;SDS011;14831;50.474;7.616;2023-08-31T08:31:00;2.1;;;1.0;;
27357;SDS011;14831;50.474;7.616;2023-08-31T08:35:58;2.1;;;1.0;;
27357;SDS011;14831;50.474;7.616;2023-08-31T08:41:04;2.1;;;1.0;;
27357;SDS011;14831;50.474;7.616;2023-08-31T08:46:01;2.1;;;1.0;;
27357;SDS011;14831;50.474;7.616;2023-08-31T08:50:58;2.1;;;1.0;;
27357;SDS011;14831;50.474;7.616;2023-08-31T08:55:58;2.1;;;1.0;;
27357;SDS011;14831;50.474;7.616;2023-08-31T09:00:57;3.6;;;1.5;;
27357;SDS011;14831;50.474;7.616;2023-08-31T09:05:59;3.6;;;1.5;;
27357;SDS011;14831;50.474;7.616;2023-08-31T09:10:58;3.6;;;1.5;;
27357;SDS011;14831;50.474;7.616;2023-08-31T09:15:58;3.6;;;1.5;;
27357;SDS011;14831;50.474;7.616;2023-08-31T09:20:58;3.6;;;1.5;;
27357;SDS011;14831;50.474;7.616;2023-08-31T09:25:57;3.6;;;1.5;;
27357;SDS011;14831;50.474;7.616;2023-08-31T09:31:05;2.7;;;1.5;;
27357;SDS011;14831;50.474;7.616;2023-08-31T09:36:00;2.7;;;1.5;;
27357;SDS011;14831;50.474;7.616;2023-08-31T09:41:03;2.7;;;1.5;;
27357;SDS011;14831;50.474;7.616;2023-08-31T09:45:58;2.7;;;1.5;;
27357;SDS011;14831;50.474;7.616;2023-08-31T09:50:58;2.7;;;1.5;;
27357;SDS011;14831;50.474;7.616;2023-08-31T09:55:57;2.7;;;1.5;;
27357;SDS011;14831;50.474;7.616;2023-08-31T10:00:58;3.5;;;1.7;;
27357;SDS011;14831;50.474;7.616;2023-08-31T10:05:59;3.5;;;1.7;;
27357;SDS011;14831;50.474;7.616;2023-08-31T10:10:59;3.5;;;1.7;;
27357;SDS011;14831;50.474;7.616;2023-08-31T10:15:58;3.5;;;1.7;;
27357;SDS011;14831;50.474;7.616;2023-08-31T10:20:58;3.5;;;1.7;;
27357;SDS011;14831;50.474;7.616;2023-08-31T10:26:00;3.5;;;1.7;;
27357;SDS011;14831;50.474;7.616;2023-08-31T10:31:01;3.0;;;1.4;;
27357;SDS011;14831;50.474;7.616;2023-08-31T10:35:59;3.0;;;1.4;;
27357;SDS011;14831;50.474;7.616;2023-08-31T10:41:16;3.0;;;1.4;;
27357;SDS011;14831;50.474;7.616;2023-08-31T10:45:58;3.0;;;1.4;;
27357;SDS011;14831;50.474;7.616;2023-08-31T10:50:59;3.0;;;1.4;;
27357;SDS011;14831;50.474;7.616;2023-08-31T10:55:57;3.0;;;1.4;;
27357;SDS011;14831;50.474;7.616;2023-08-31T11:00:57;2.7;;;1.8;;
27357;SDS011;14831;50.474;7.616;2023-08-31T11:05:57;2.7;;;1.8;;
27357;SDS011;14831;50.474;7.616;2023-08-31T11:10:57;2.7;;;1.8;;
27357;SDS011;14831;50.474;7.616;2023-08-31T11:15:57;2.7;;;1.8;;
27357;SDS011;14831;50.474;7.616;2023-08-31T11:20:57;2.7;;;1.8;;
27357;SDS011;14831;50.474;7.616;2023-08-31T11:25:58;2.7;;;1.8;;
27357;SDS011;14831;50.474;7.616;2023-08-31T11:30:58;3.6;;;2.0;;
27357;SDS011;14831;50.474;7.616;2023-08-31T11:35:58;3.6;;;2.0;;
27357;SDS011;14831;50.474;7.616;2023-08-31T11:40:58;3.6;;;2.0;;
27357;SDS011;14831;50.474;7.616;2023-08-31T11:45:58;3.6;;;2.0;;
27357;SDS011;14831;50.474;7.616;2023-08-31T11:50:58;3.6;;;2.0;;
27357;SDS011;14831;50.474;7.616;2023-08-31T11:56:02;3.6;;;2.0;;
27357;SDS011;14831;50.474;7.616;2023-08-31T12:00:58;7.0;;;3.5;;
27357;SDS011;14831;50.474;7.616;2023-08-31T12:05:57;7.0;;;3.5;;
27357;SDS011;14831;50.474;7.616;2023-08-31T12:11:00;7.0;;;3.5;;
27357;SDS011;14831;50.474;7.616;2023-08-31T12:15:58;7.0;;;3.5;;
27357;SDS011;14831;50.474;7.616;2023-08-31T12:20:58;7.0;;;3.5;;
27357;SDS011;14831;50.474;7.616;2023-08-31T12:25:57;7.0;;;3.5;;
27357;SDS011;14831;50.474;7.616;2023-08-31T12:30:57;7.3;;;3.4;;
27357;SDS011;14831;50.474;7.616;2023-08-31T12:35:58;7.3;;;3.4;;
27357;SDS011;14831;50.474;7.616;2023-08-31T12:40:57;7.3;;;3.4;;
27357;SDS011;14831;50.474;7.616;2023-08-31T12:45:58;7.3;;;3.4;;
27357;SDS011;14831;50.474;7.616;2023-08-31T12:50:57;7.3;;;3.4;;
27357;SDS011;14831;50.474;7.616;2023-08-31T12:55:57;7.3;;;3.4;;
27357;SDS011;14831;50.474;7.616;2023-08-31T13:00:58;5.7;;;2.7;;
27357;SDS011;14831;50.474;7.616;2023-08-31T13:06:06;5.7;;;2.7;;
27357;SDS011;14831;50.474;7.616;2023-08-31T13:10:57;5.7;;;2.7;;
27357;SDS011;14831;50.474;7.616;2023-08-31T13:15:57;5.7;;;2.7;;
27357;SDS011;14831;50.474;7.616;2023-08-31T13:20:58;5.7;;;2.7;;
27357;SDS011;14831;50.474;7.616;2023-08-31T13:25:58;5.7;;;2.7;;
27357;SDS011;14831;50.474;7.616;2023-08-31T13:30:58;5.6;;;2.3;;
27357;SDS011;14831;50.474;7.616;2023-08-31T13:35:58;5.6;;;2.3;;
27357;SDS011;14831;50.474;7.616;2023-08-31T13:40:57;5.6;;;2.3;;
27357;SDS011;14831;50.474;7.616;2023-08-31T13:45:58;5.6;;;2.3;;
27357;SDS011;14831;50.474;7.616;2023-08-31T13:50:58;5.6;;;2.3;;
27357;SDS011;14831;50.474;7.616;2023-08-31T13:55:57;5.6;;;2.3;;
27357;SDS011;14831;50.474;7.616;2023-08-31T14:01:00;4.0;;;2.5;;
27357;SDS011;14831;50.474;7.616;2023-08-31T14:05:57;4.0;;;2.5;;
27357;SDS011;14831;50.474;7.616;2023-08-31T14:10:58;4.0;;;2.5;;
27357;SDS011;14831;50.474;7.616;2023-08-31T14:15:57;4.0;;;2.5;;
27357;SDS011;14831;50.474;7.616;2023-08-31T14:20:58;4.0;;;2.5;;
27357;SDS011;14831;50.474;7.616;2023-08-31T14:26:01;4.0;;;2.5;;
27357;SDS011;14831;50.474;7.616;2023-08-31T14:31:03;4.4;;;1.9;;
27357;SDS011;14831;50.474;7.616;2023-08-31T14:35:58;4.4;;;1.9;;
27357;SDS011;14831;50.474;7.616;2023-08-31T14:40:58;4.4;;;1.9;;
27357;SDS011;14831;50.474;7.616;2023-08-31T14:45:58;4.4;;;1.9;;
27357;SDS011;14831;50.474;7.616;2023-08-31T14:50:57;4.4;;;1.9;;
27357;SDS011;14831;50.474;7.616;2023-08-31T14:55:57;4.4;;;1.9;;
27357;SDS011;14831;50.474;7.616;2023-08-31T15:00:57;4.0;;;1.6;;
27357;SDS011;14831;50.474;7.616;2023-08-31T15:05:57;4.0;;;1.6;;
27357;SDS011;14831;50.474;7.616;2023-08-31T15:10:57;4.0;;;1.6;;
27357;SDS011;14831;50.474;7.616;2023-08-31T15:15:58;4.0;;;1.6;;
27357;SDS011;14831;50.474;7.616;2023-08-31T15:20:58;4.0;;;1.6;;
27357;SDS011;14831;50.474;7.616;2023-08-31T15:25:59;4.0;;;1.6;;
27357;SDS011;14831;50.474;7.616;2023-08-31T15:30:57;3.3;;;2.2;;
27357;SDS011;14831;50.474;7.616;2023-08-31T15:36:02;3.3;;;2.2;;
27357;SDS011;14831;50.474;7.616;2023-08-31T15:40:58;3.3;;;2.2;;
27357;SDS011;14831;50.474;7.616;2023-08-31T15:45:58;3.3;;;2.2;;
27357;SDS011;14831;50.474;7.616;2023-08-31T15:50:58;3.3;;;2.2;;
27357;SDS011;14831;50.474;7.616;2023-08-31T15:55:58;3.3;;;2.2;;
27357;SDS011;14831;50.474;7.616;2023-08-31T16:00:58;2.5;;;1.8;;
27357;SDS011;14831;50.474;7.616;2023-08-31T16:05:58;2.5;;;1.8;;
27357;SDS011;14831;50.474;7.616;2023-08-31T16:10:58;2.5;;;1.8;;
27357;SDS011;14831;50.474;7.616;2023-08-31T16:15:58;2.5;;;1.8;;
27357;SDS011;14831;50.474;7.616;2023-08-31T16:20:58;2.5;;;1.8;;
27357;SDS011;14831;50.474;7.616;2023-08-31T16:25:58;2.5;;;1.8;;
27357;SDS011;14831;50.474;7.616;2023-08-31T16:30:58;2.0;;;1.8;;
27357;SDS011;14831;50.474;7.616;2023-08-31T16:35:58;2.0;;;1.8;;
27357;SDS011;14831;50.474;7.616;2023-08-31T16:40:57;2.0;;;1.8;;
27357;SDS011;14831;50.474;7.616;2023-08-31T16:46:01;2.0;;;1.8;;
27357;SDS011;14831;50.474;7.616;2023-08-31T16:50:58;2.0;;;1.8;;
27357;SDS011;14831;50.474;7.616;2023-08-31T16:55:57;2.0;;;1.8;;
27357;SDS011;14831;50.474;7.616;2023-08-31T17:00:58;1.8;;;1.5;;
27357;SDS011;14831;50.474;7.616;2023-08-31T17:05:58;1.8;;;1.5;;
27357;SDS011;14831;50.474;7.616;2023-08-31T17:10:58;1.8;;;1.5;;
27357;SDS011;14831;50.474;7.616;2023-08-31T17:15:57;1.8;;;1.5;;
27357;SDS011;14831;50.474;7.616;2023-08-31T17:20:58;1.8;;;1.5;;
27357;SDS011;14831;50.474;7.616;2023-08-31T17:25:57;1.8;;;1.5;;
27357;SDS011;14831;50.474;7.616;2023-08-31T17:30:58;3.1;;;1.7;;
27357;SDS011;14831;50.474;7.616;2023-08-31T17:35:58;3.1;;;1.7;;
27357;SDS011;14831;50.474;7.616;2023-08-31T17:40:57;3.1;;;1.7;;
27357;SDS011;14831;50.474;7.616;2023-08-31T17:45:58;3.1;;;1.7;;
27357;SDS011;14831;50.474;7.616;2023-08-31T17:50:58;3.1;;;1.7;;
27357;SDS011;14831;50.474;7.616;2023-08-31T17:55:57;3.1;;;1.7;;
27357;SDS011;14831;50.474;7.616;2023-08-31T18:00:57;2.8;;;1.6;;
27357;SDS011;14831;50.474;7.616;2023-08-31T18:05:57;2.8;;;1.6;;
27357;SDS011;14831;50.474;7.616;2023-08-31T18:10:59;2.8;;;1.6;;
27357;SDS011;14831;50.474;7.616;2023-08-31T18:15:57;2.8;;;1.6;;
27357;SDS011;14831;50.474;7.616;2023-08-31T18:20:58;2.8;;;1.6;;
27357;SDS011;14831;50.474;7.616;2023-08-31T18:25:57;2.8;;;1.6;;
27357;SDS011;14831;50.474;7.616;2023-08-31T18:30:58;1.3;;;1.2;;
27357;SDS011;14831;50.474;7.616;2023-08-31T18:35:58;1.3;;;1.2;;
27357;SDS011;14831;50.474;7.616;2023-08-31T18:40:58;1.3;;;1.2;;
27357;SDS011;14831;50.474;7.616;2023-08-31T18:45:57;1.3;;;1.2;;
27357;SDS011;14831;50.474;7.616;2023-08-31T18:50:59;1.3;;;1.2;;
27357;SDS011;14831;50.474;7.616;2023-08-31T18:55:59;1.3;;;1.2;;
27357;SDS011;14831;50.474;7.616;2023-08-31T19:00:58;1.8;;;1.4;;
27357;SDS011;14831;50.474;7.616;2023-08-31T19:05:57;1.8;;;1.4;;
27357;SDS011;14831;50.474;7.616;2023-08-31T19:10:57;1.8;;;1.4;;
27357;SDS011;14831;50.474;7.616;2023-08-31T19:15:58;1.8;;;1.4;;
27357;SDS011;14831;50.474;7.616;2023-08-31T19:20:59;1.8;;;1.4;;
27357;SDS011;14831;50.474;7.616;2023-08-31T19:25:59;1.8;;;1.4;;
27357;SDS011;14831;50.474;7.616;2023-08-31T19:30:58;3.0;;;1.4;;
27357;SDS011;14831;50.474;7.616;2023-08-31T19:35:58;3.0;;;1.4;;
27357;SDS011;14831;50.474;7.616;2023-08-31T19:40:57;3.0;;;1.4;;
27357;SDS011;14831;50.474;7.616;2023-08-31T19:45:59;3.0;;;1.4;;
27357;SDS011;14831;50.474;7.616;2023-08-31T19:51:03;3.0;;;1.4;;
27357;SDS011;14831;50.474;7.616;2023-08-31T19:56:01;3.0;;;1.4;;
27357;SDS011;14831;50.474;7.616;2023-08-31T20:00:57;1.5;;;1.3;;
27357;SDS011;14831;50.474;7.616;2023-08-31T20:05:58;1.5;;;1.3;;
27357;SDS011;14831;50.474;7.616;2023-08-31T20:10:58;1.5;;;1.3;;
27357;SDS011;14831;50.474;7.616;2023-08-31T20:15:58;1.5;;;1.3;;
27357;SDS011;14831;50.474;7.616;2023-08-31T20:20:58;1.5;;;1.3;;
27357;SDS011;14831;50.474;7.616;2023-08-31T20:25:58;1.5;;;1.3;;
27357;SDS011;14831;50.474;7.616;2023-08-31T20:30:58;1.8;;;1.3;;
27357;SDS011;14831;50.474;7.616;2023-08-31T20:36:06;1.8;;;1.3;;
27357;SDS011;14831;50.474;7.616;2023-08-31T20:40:58;1.8;;;1.3;;
27357;SDS011;14831;50.474;7.616;2023-08-31T20:46:02;1.8;;;1.3;;
27357;SDS011;14831;50.474;7.616;2023-08-31T20:51:01;1.8;;;1.3;;
27357;SDS011;14831;50.474;7.616;2023-08-31T20:56:06;1.8;;;1.3;;
27357;SDS011;14831;50.474;7.616;2023-08-31T21:00:58;1.6;;;1.3;;
27357;SDS011;14831;50.474;7.616;2023-08-31T21:05:57;1.6;;;1.3;;
27357;SDS011;14831;50.474;7.616;2023-08-31T21:10:58;1.6;;;1.3;;
27357;SDS011;14831;50.474;7.616;2023-08-31T21:15:57;1.6;;;1.3;;
27357;SDS011;14831;50.474;7.616;2023-08-31T21:20:58;1.6;;;1.3;;
27357;SDS011;14831;50.474;7.616;2023-08-31T21:25:58;1.6;;;1.3;;
27357;SDS011;14831;50.474;7.616;2023-08-31T21:30:58;1.2;;;1.1;;
27357;SDS011;14831;50.474;7.616;2023-08-31T21:35:59;1.2;;;1.1;;
27357;SDS011;14831;50.474;7.616;2023-08-31T21:40:59;1.2;;;1.1;;
27357;SDS011;14831;50.474;7.616;2023-08-31T21:45:58;1.2;;;1.1;;
27357;SDS011;14831;50.474;7.616;2023-08-31T21:50:58;1.2;;;1.1;;
27357;SDS011;14831;50.474;7.616;2023-08-31T21:56:01;1.2;;;1.1;;
27357;SDS011;14831;50.474;7.616;2023-08-31T22:00:57;1.0;;;1.0;;
27357;SDS011;14831;50.474;7.616;2023-08-31T22:06:04;1.0;;;1.0;;
27357;SDS011;14831;50.474;7.616;2023-08-31T22:10:57;1.0;;;1.0;;
27357;SDS011;14831;50.474;7.616;2023-08-31T22:15:58;1.0;;;1.0;;
27357;SDS011;14831;50.474;7.616;2023-08-31T22:20:58;1.0;;;1.0;;
27357;SDS011;14831;50.474;7.616;2023-08-31T22:25:58;1.0;;;1.0;;
27357;SDS011;14831;50.474;7.616;2023-08-31T22:30:58;1.5;;;1.2;;
27357;SDS011;14831;50.474;7.616;2023-08-31T22:36:01;1.5;;;1.2;;
27357;SDS011;14831;50.474;7.616;2023-08-31T22:40:57;1.5;;;1.2;;
27357;SDS011;14831;50.474;7.616;2023-08-31T22:45:58;1.5;;;1.2;;
27357;SDS011;14831;50.474;7.616;2023-08-31T22:50:58;1.5;;;1.2;;
27357;SDS011;14831;50.474;7.616;2023-08-31T22:55:58;1.5;;;1.2;;
27357;SDS011;14831;50.474;7.616;2023-08-31T23:00:58;1.5;;;1.0;;
27357;SDS011;14831;50.474;7.616;2023-08-31T23:05:58;1.5;;;1.0;;
27357;SDS011;14831;50.474;7.616;2023-08-31T23:10:58;1.5;;;1.0;;
27357;SDS011;14831;50.474;7.616;2023-08-31T23:15:58;1.5;;;1.0;;
27357;SDS011;14831;50.474;7.616;2023-08-31T23:21:02;1.5;;;1.0;;
27357;SDS011;14831;50.474;7.616;2023-08-31T23:25:58;1.5;;;1.0;;
27357;SDS011;14831;50.474;7.616;2023-08-31T23:30:58;0.8;;;0.8;;
27357;SDS011;14831;50.474;7.616;2023-08-31T23:35:58;0.8;;;0.8;;
27357;SDS011;14831;50.474;7.616;2023-08-31T23:40:58;0.8;;;0.8;;
27357;SDS011;14831;50.474;7.616;2023-08-31T23:45:57;0.8;;;0.8;;
27357;SDS011;14831;50.474;7.616;2023-08-31T23:50:58;0.8;;;0.8;;
27357;SDS011;14831;50.474;7.616;2023-08-31T23:56:02;0.8;;;0.8;;
